THY81K FMMI-FIMP
Flight info
| Callsign | THY81K |
|---|---|
| Flight time | N/A |
| Altitude | 39000 |
| Route | PIPRI1E TE UA400 RASMA RASMA2E |
| Aircraft | B77W/H-SDE1E2E3FGHIJ2J3J4J5M1RWXY/LB1D1 |
Departure
| Time | 2026-05-05 13:03 |
|---|---|
| Airport | Ivato International Airport (FMMI) |
Arrival
| Time | N/A |
|---|---|
| Airport | Sir Seewoosagur Ramgoolam International Airport (FIMP) |
| Time | Latitude | Longitude | Altitude | Speed | Heading |
|---|---|---|---|---|---|
| 2026-05-05 12:45 | -18.79982 | 47.47983 | 4171 ft | 0 kts | 176° |
| 2026-05-05 12:51 | -18.79978 | 47.47983 | 4171 ft | 3 kts | 176° |
| 2026-05-05 12:51 | -18.79955 | 47.47981 | 4171 ft | 1 kts | 173° |
| 2026-05-05 12:51 | -18.79954 | 47.47981 | 4171 ft | 0 kts | 173° |
| 2026-05-05 12:55 | -18.79958 | 47.47984 | 4171 ft | 2 kts | 151° |
| 2026-05-05 12:55 | -18.79961 | 47.47999 | 4171 ft | 2 kts | 83° |
| 2026-05-05 12:55 | -18.79940 | 47.48035 | 4171 ft | 8 kts | 57° |
| 2026-05-05 12:55 | -18.79905 | 47.48084 | 4171 ft | 8 kts | 43° |
| 2026-05-05 12:56 | -18.79863 | 47.48104 | 4170 ft | 0 kts | 14° |
| 2026-05-05 12:57 | -18.79852 | 47.48107 | 4170 ft | 4 kts | 14° |
| 2026-05-05 12:57 | -18.79824 | 47.48113 | 4169 ft | 5 kts | 9° |
| 2026-05-05 12:57 | -18.79774 | 47.48121 | 4168 ft | 9 kts | 9° |
| 2026-05-05 12:58 | -18.79725 | 47.48092 | 4169 ft | 9 kts | 292° |
| 2026-05-05 12:58 | -18.79711 | 47.48014 | 4169 ft | 16 kts | 278° |
| 2026-05-05 12:58 | -18.79692 | 47.47882 | 4168 ft | 19 kts | 279° |
| 2026-05-05 12:58 | -18.79672 | 47.47748 | 4168 ft | 19 kts | 279° |
| 2026-05-05 12:59 | -18.79665 | 47.47703 | 4168 ft | 19 kts | 279° |
| 2026-05-05 12:59 | -18.79618 | 47.47393 | 4167 ft | 19 kts | 279° |
| 2026-05-05 13:00 | -18.79570 | 47.47081 | 4165 ft | 19 kts | 279° |
| 2026-05-05 13:00 | -18.79550 | 47.46947 | 4165 ft | 19 kts | 279° |
| 2026-05-05 13:01 | -18.79492 | 47.46561 | 4165 ft | 10 kts | 279° |
| 2026-05-05 13:01 | -18.79475 | 47.46516 | 4166 ft | 5 kts | 316° |
| 2026-05-05 13:01 | -18.79451 | 47.46490 | 4166 ft | 4 kts | 291° |
| 2026-05-05 13:01 | -18.79461 | 47.46475 | 4166 ft | 2 kts | 210° |
| 2026-05-05 13:02 | -18.79476 | 47.46483 | 4166 ft | 2 kts | 134° |
| 2026-05-05 13:02 | -18.79481 | 47.46503 | 4166 ft | 3 kts | 104° |
| 2026-05-05 13:02 | -18.79482 | 47.46505 | 4166 ft | 0 kts | 104° |
| 2026-05-05 13:02 | -18.79482 | 47.46507 | 4166 ft | 2 kts | 104° |
| 2026-05-05 13:03 | -18.79510 | 47.46678 | 4166 ft | 56 kts | 99° |
| 2026-05-05 13:03 | -18.79612 | 47.47358 | 4167 ft | 129 kts | 99° |
| 2026-05-05 13:03 | -18.79791 | 47.48499 | 4243 ft | 176 kts | 100° |
| 2026-05-05 13:03 | -18.79975 | 47.49771 | 4984 ft | 171 kts | 101° |
| 2026-05-05 13:04 | -18.80177 | 47.51021 | 5720 ft | 174 kts | 100° |
| 2026-05-05 13:04 | -18.80386 | 47.52289 | 6317 ft | 185 kts | 100° |
| 2026-05-05 13:04 | -18.80628 | 47.53755 | 6565 ft | 216 kts | 99° |
| 2026-05-05 13:04 | -18.80902 | 47.55430 | 6756 ft | 249 kts | 100° |
| 2026-05-05 13:05 | -18.81206 | 47.57279 | 7286 ft | 264 kts | 101° |
| 2026-05-05 13:05 | -18.81532 | 47.59257 | 8010 ft | 277 kts | 101° |
| 2026-05-05 13:05 | -18.81864 | 47.61269 | 8896 ft | 281 kts | 101° |
| 2026-05-05 13:05 | -18.82202 | 47.63313 | 9685 ft | 290 kts | 101° |
| 2026-05-05 13:06 | -18.82553 | 47.65445 | 10411 ft | 301 kts | 102° |
| 2026-05-05 13:06 | -18.82931 | 47.67718 | 10697 ft | 329 kts | 101° |
| 2026-05-05 13:06 | -18.83346 | 47.70206 | 10996 ft | 355 kts | 101° |
| 2026-05-05 13:06 | -18.83780 | 47.72818 | 11748 ft | 366 kts | 101° |
| 2026-05-05 13:07 | -18.83929 | 47.73717 | 12057 ft | 368 kts | 101° |
| 2026-05-05 13:07 | -18.84516 | 47.77264 | 13471 ft | 372 kts | 101° |
| 2026-05-05 13:07 | -18.84960 | 47.79963 | 14438 ft | 376 kts | 101° |
| 2026-05-05 13:07 | -18.85411 | 47.82697 | 15148 ft | 380 kts | 101° |
| 2026-05-05 13:08 | -18.86022 | 47.86398 | 16082 ft | 385 kts | 101° |
| 2026-05-05 13:08 | -18.86485 | 47.89201 | 16739 ft | 390 kts | 101° |
| 2026-05-05 13:08 | -18.86953 | 47.92042 | 17418 ft | 394 kts | 101° |
| 2026-05-05 13:08 | -18.87425 | 47.94910 | 18155 ft | 397 kts | 101° |
| 2026-05-05 13:09 | -18.87894 | 47.97753 | 18767 ft | 401 kts | 101° |
| 2026-05-05 13:09 | -18.88219 | 47.99725 | 19113 ft | 406 kts | 101° |
| 2026-05-05 13:09 | -18.88865 | 48.03643 | 19845 ft | 412 kts | 101° |
| 2026-05-05 13:09 | -18.89357 | 48.06634 | 20422 ft | 416 kts | 101° |
| 2026-05-05 13:10 | -18.89858 | 48.09665 | 20982 ft | 421 kts | 101° |
| 2026-05-05 13:10 | -18.90363 | 48.12728 | 21542 ft | 426 kts | 101° |
| 2026-05-05 13:10 | -18.90872 | 48.15820 | 22089 ft | 430 kts | 101° |
| 2026-05-05 13:10 | -18.91389 | 48.18955 | 22666 ft | 435 kts | 101° |
| 2026-05-05 13:11 | -18.91768 | 48.21034 | 22977 ft | 433 kts | 106° |
| 2026-05-05 13:11 | -18.93124 | 48.25086 | 23439 ft | 441 kts | 116° |
| 2026-05-05 13:11 | -18.94008 | 48.27019 | 23771 ft | 443 kts | 118° |
| 2026-05-05 13:11 | -18.95759 | 48.30946 | 24405 ft | 448 kts | 115° |
| 2026-05-05 13:12 | -18.96870 | 48.34035 | 24861 ft | 452 kts | 110° |
| 2026-05-05 13:12 | -18.97504 | 48.36187 | 25150 ft | 456 kts | 108° |
| 2026-05-05 13:12 | -18.98537 | 48.40534 | 25690 ft | 463 kts | 104° |
| 2026-05-05 13:12 | -18.98981 | 48.42749 | 25958 ft | 467 kts | 103° |
| 2026-05-05 13:13 | -18.99604 | 48.46133 | 26371 ft | 471 kts | 103° |
| 2026-05-05 13:13 | -19.00204 | 48.49562 | 26762 ft | 476 kts | 102° |
| 2026-05-05 13:13 | -19.00802 | 48.53013 | 27155 ft | 480 kts | 102° |
| 2026-05-05 13:13 | -19.01411 | 48.56500 | 27552 ft | 484 kts | 103° |
| 2026-05-05 13:14 | -19.02034 | 48.60016 | 27925 ft | 488 kts | 103° |
| 2026-05-05 13:14 | -19.02668 | 48.63561 | 28316 ft | 492 kts | 103° |
| 2026-05-05 13:14 | -19.03310 | 48.67125 | 28675 ft | 496 kts | 103° |
| 2026-05-05 13:14 | -19.03961 | 48.70723 | 29016 ft | 500 kts | 103° |
| 2026-05-05 13:15 | -19.04611 | 48.74313 | 29332 ft | 504 kts | 103° |
| 2026-05-05 13:15 | -19.05271 | 48.77967 | 29685 ft | 508 kts | 103° |
| 2026-05-05 13:15 | -19.05937 | 48.81655 | 30037 ft | 511 kts | 103° |
| 2026-05-05 13:15 | -19.06603 | 48.85358 | 30335 ft | 514 kts | 103° |
| 2026-05-05 13:16 | -19.07273 | 48.89088 | 30639 ft | 516 kts | 103° |
| 2026-05-05 13:16 | -19.07944 | 48.92829 | 30933 ft | 518 kts | 103° |
| 2026-05-05 13:16 | -19.08616 | 48.96577 | 31217 ft | 520 kts | 103° |
| 2026-05-05 13:16 | -19.09279 | 49.00286 | 31545 ft | 519 kts | 103° |
| 2026-05-05 13:17 | -19.09948 | 49.04027 | 31976 ft | 517 kts | 103° |
| 2026-05-05 13:17 | -19.10613 | 49.07759 | 32395 ft | 515 kts | 103° |
| 2026-05-05 13:17 | -19.11276 | 49.11475 | 32792 ft | 514 kts | 103° |
| 2026-05-05 13:17 | -19.11936 | 49.15185 | 33152 ft | 513 kts | 103° |
| 2026-05-05 13:18 | -19.12595 | 49.18883 | 33525 ft | 512 kts | 103° |
| 2026-05-05 13:18 | -19.13252 | 49.22581 | 33900 ft | 510 kts | 103° |
| 2026-05-05 13:18 | -19.13906 | 49.26265 | 34236 ft | 509 kts | 103° |
| 2026-05-05 13:18 | -19.14559 | 49.29946 | 34555 ft | 507 kts | 103° |
| 2026-05-05 13:19 | -19.15208 | 49.33609 | 34860 ft | 507 kts | 103° |
| 2026-05-05 13:19 | -19.15850 | 49.37235 | 35147 ft | 506 kts | 103° |
| 2026-05-05 13:19 | -19.16495 | 49.40886 | 35456 ft | 505 kts | 103° |
| 2026-05-05 13:19 | -19.17139 | 49.44537 | 35767 ft | 503 kts | 103° |
| 2026-05-05 13:20 | -19.17780 | 49.48174 | 36067 ft | 502 kts | 103° |
| 2026-05-05 13:20 | -19.18421 | 49.51812 | 36364 ft | 501 kts | 103° |
| 2026-05-05 13:20 | -19.19058 | 49.55431 | 36641 ft | 500 kts | 103° |
| 2026-05-05 13:20 | -19.19692 | 49.59043 | 36908 ft | 499 kts | 103° |
| 2026-05-05 13:21 | -19.20965 | 49.66297 | 37036 ft | 501 kts | 103° |
| 2026-05-05 13:21 | -19.22231 | 49.73537 | 37045 ft | 498 kts | 103° |
| 2026-05-05 13:22 | -19.23478 | 49.80688 | 37033 ft | 496 kts | 103° |
| 2026-05-05 13:22 | -19.24728 | 49.87868 | 37036 ft | 496 kts | 103° |
| 2026-05-05 13:23 | -19.25976 | 49.95053 | 37044 ft | 496 kts | 103° |
| 2026-05-05 13:23 | -19.27223 | 50.02247 | 37039 ft | 497 kts | 103° |
| 2026-05-05 13:24 | -19.28468 | 50.09448 | 37047 ft | 498 kts | 103° |
| 2026-05-05 13:24 | -19.29710 | 50.16663 | 37047 ft | 499 kts | 103° |
| 2026-05-05 13:25 | -19.30951 | 50.23902 | 37038 ft | 500 kts | 103° |
| 2026-05-05 13:25 | -19.32189 | 50.31143 | 37040 ft | 500 kts | 103° |
| 2026-05-05 13:26 | -19.33420 | 50.38358 | 37039 ft | 501 kts | 103° |
| 2026-05-05 13:26 | -19.34654 | 50.45611 | 37039 ft | 501 kts | 103° |
| 2026-05-05 13:27 | -19.35888 | 50.52878 | 37036 ft | 501 kts | 103° |
| 2026-05-05 13:27 | -19.37117 | 50.60136 | 37037 ft | 500 kts | 103° |
| 2026-05-05 13:28 | -19.38344 | 50.67398 | 37044 ft | 500 kts | 102° |
| 2026-05-05 13:28 | -19.39566 | 50.74651 | 37036 ft | 500 kts | 102° |
| 2026-05-05 13:29 | -19.40778 | 50.81862 | 37038 ft | 500 kts | 102° |
| 2026-05-05 13:29 | -19.41994 | 50.89112 | 37042 ft | 499 kts | 102° |
| 2026-05-05 13:30 | -19.43207 | 50.96363 | 37040 ft | 499 kts | 102° |
| 2026-05-05 13:30 | -19.44415 | 51.03606 | 37043 ft | 499 kts | 102° |
| 2026-05-05 13:31 | -19.45622 | 51.10862 | 37041 ft | 499 kts | 102° |
| 2026-05-05 13:31 | -19.46827 | 51.18118 | 37038 ft | 499 kts | 102° |
| 2026-05-05 13:32 | -19.48027 | 51.25366 | 37038 ft | 499 kts | 102° |
| 2026-05-05 13:32 | -19.49220 | 51.32589 | 37038 ft | 500 kts | 102° |
| 2026-05-05 13:33 | -19.50417 | 51.39859 | 37033 ft | 500 kts | 102° |
| 2026-05-05 13:33 | -19.51411 | 51.45909 | 37040 ft | 500 kts | 102° |
| 2026-05-05 13:34 | -19.54052 | 51.62039 | 37039 ft | 501 kts | 102° |
| 2026-05-05 13:35 | -19.55233 | 51.69286 | 37038 ft | 502 kts | 102° |
| 2026-05-05 13:35 | -19.56419 | 51.76584 | 37038 ft | 502 kts | 102° |
| 2026-05-05 13:36 | -19.57603 | 51.83882 | 37041 ft | 502 kts | 102° |
| 2026-05-05 13:36 | -19.58784 | 51.91188 | 37037 ft | 502 kts | 102° |
| 2026-05-05 13:37 | -19.59963 | 51.98497 | 37039 ft | 502 kts | 102° |
| 2026-05-05 13:37 | -19.61131 | 52.05757 | 37045 ft | 502 kts | 102° |
| 2026-05-05 13:38 | -19.62304 | 52.13065 | 37041 ft | 502 kts | 102° |
| 2026-05-05 13:38 | -19.63474 | 52.20378 | 37040 ft | 502 kts | 102° |
| 2026-05-05 13:39 | -19.64255 | 52.25273 | 37042 ft | 502 kts | 102° |